sensor_id;sensor_type;location;lat;lon;timestamp;pressure;altitude;pressure_sealevel;temperature;humidity
69411;BME280;56604;48.652;9.194;2023-02-13T00:02:24;98100.78;;;2.23;96.01
69411;BME280;56604;48.652;9.194;2023-02-13T00:04:50;98095.88;;;2.20;95.70
69411;BME280;56604;48.652;9.194;2023-02-13T00:07:15;98096.84;;;2.19;95.35
69411;BME280;56604;48.652;9.194;2023-02-13T00:09:40;98100.91;;;2.21;95.65
69411;BME280;56604;48.652;9.194;2023-02-13T00:12:07;98097.31;;;2.14;95.79
69411;BME280;56604;48.652;9.194;2023-02-13T00:14:37;98090.69;;;2.02;95.54
69411;BME280;56604;48.652;9.194;2023-02-13T00:17:04;98095.06;;;2.01;95.86
69411;BME280;56604;48.652;9.194;2023-02-13T00:19:29;98095.31;;;2.08;95.83
69411;BME280;56604;48.652;9.194;2023-02-13T00:21:55;98093.16;;;2.03;96.21
69411;BME280;56604;48.652;9.194;2023-02-13T00:24:20;98089.81;;;2.11;95.75
69411;BME280;56604;48.652;9.194;2023-02-13T00:26:45;98090.94;;;2.09;95.84
69411;BME280;56604;48.652;9.194;2023-02-13T00:29:11;98096.03;;;2.18;95.65
69411;BME280;56604;48.652;9.194;2023-02-13T00:31:36;98094.91;;;2.21;96.06
69411;BME280;56604;48.652;9.194;2023-02-13T00:34:01;98091.88;;;2.25;95.67
69411;BME280;56604;48.652;9.194;2023-02-13T00:36:27;98091.44;;;2.12;95.33
69411;BME280;56604;48.652;9.194;2023-02-13T00:38:53;98106.41;;;2.18;95.40
69411;BME280;56604;48.652;9.194;2023-02-13T00:41:18;98102.31;;;2.16;95.75
69411;BME280;56604;48.652;9.194;2023-02-13T00:43:45;98100.69;;;2.15;95.42
69411;BME280;56604;48.652;9.194;2023-02-13T00:46:10;98101.22;;;2.18;96.09
69411;BME280;56604;48.652;9.194;2023-02-13T00:48:36;98091.94;;;2.34;95.45
69411;BME280;56604;48.652;9.194;2023-02-13T00:51:02;98094.38;;;2.35;94.75
69411;BME280;56604;48.652;9.194;2023-02-13T00:53:28;98097.78;;;2.36;94.54
69411;BME280;56604;48.652;9.194;2023-02-13T00:55:54;98095.78;;;2.30;94.61
69411;BME280;56604;48.652;9.194;2023-02-13T00:58:19;98096.25;;;2.25;94.78
69411;BME280;56604;48.652;9.194;2023-02-13T01:00:46;98099.09;;;2.14;94.67
69411;BME280;56604;48.652;9.194;2023-02-13T01:03:15;98101.22;;;2.18;94.92
69411;BME280;56604;48.652;9.194;2023-02-13T01:05:41;98095.41;;;2.24;95.15
69411;BME280;56604;48.652;9.194;2023-02-13T01:08:06;98100.19;;;2.11;95.16
69411;BME280;56604;48.652;9.194;2023-02-13T01:10:32;98089.28;;;2.08;95.21
69411;BME280;56604;48.652;9.194;2023-02-13T01:12:58;98094.03;;;2.12;95.23
69411;BME280;56604;48.652;9.194;2023-02-13T01:15:23;98087.31;;;2.19;95.17
69411;BME280;56604;48.652;9.194;2023-02-13T01:17:48;98090.84;;;2.18;95.36
69411;BME280;56604;48.652;9.194;2023-02-13T01:20:14;98090.84;;;2.18;95.42
69411;BME280;56604;48.652;9.194;2023-02-13T01:22:40;98083.78;;;2.29;94.92
69411;BME280;56604;48.652;9.194;2023-02-13T01:25:08;98083.72;;;2.20;94.79
69411;BME280;56604;48.652;9.194;2023-02-13T01:27:33;98081.81;;;2.22;95.47
69411;BME280;56604;48.652;9.194;2023-02-13T01:29:58;98087.72;;;2.15;95.18
69411;BME280;56604;48.652;9.194;2023-02-13T01:32:24;98086.03;;;2.06;94.83
69411;BME280;56604;48.652;9.194;2023-02-13T01:34:50;98085.50;;;2.02;95.12
69411;BME280;56604;48.652;9.194;2023-02-13T01:37:15;98081.38;;;2.09;95.63
69411;BME280;56604;48.652;9.194;2023-02-13T01:39:41;98077.44;;;2.05;95.38
69411;BME280;56604;48.652;9.194;2023-02-13T01:42:15;98075.28;;;2.00;95.35
69411;BME280;56604;48.652;9.194;2023-02-13T01:44:51;98077.22;;;1.98;95.46
69411;BME280;56604;48.652;9.194;2023-02-13T01:47:25;98069.81;;;1.86;95.10
69411;BME280;56604;48.652;9.194;2023-02-13T01:50:00;98076.16;;;1.73;94.93
69411;BME280;56604;48.652;9.194;2023-02-13T01:52:27;98066.63;;;1.74;94.72
69411;BME280;56604;48.652;9.194;2023-02-13T01:54:53;98074.47;;;1.82;95.42
69411;BME280;56604;48.652;9.194;2023-02-13T01:57:21;98072.19;;;1.97;95.64
69411;BME280;56604;48.652;9.194;2023-02-13T01:59:52;98069.22;;;1.92;95.86
69411;BME280;56604;48.652;9.194;2023-02-13T02:02:19;98072.84;;;1.99;95.56
69411;BME280;56604;48.652;9.194;2023-02-13T02:04:46;98069.22;;;1.92;95.41
69411;BME280;56604;48.652;9.194;2023-02-13T02:07:23;98063.28;;;1.82;95.02
69411;BME280;56604;48.652;9.194;2023-02-13T02:09:51;98064.25;;;1.80;95.41
69411;BME280;56604;48.652;9.194;2023-02-13T02:12:39;98073.66;;;1.82;95.73
69411;BME280;56604;48.652;9.194;2023-02-13T02:15:06;98070.13;;;1.83;95.65
69411;BME280;56604;48.652;9.194;2023-02-13T02:17:32;98069.75;;;1.77;95.81
69411;BME280;56604;48.652;9.194;2023-02-13T02:20:08;98067.28;;;1.76;95.73
69411;BME280;56604;48.652;9.194;2023-02-13T02:28:09;98071.75;;;1.84;95.96
69411;BME280;56604;48.652;9.194;2023-02-13T02:36:55;98065.56;;;1.67;95.76
69411;BME280;56604;48.652;9.194;2023-02-13T02:42:30;98064.50;;;1.42;95.11
69411;BME280;56604;48.652;9.194;2023-02-13T02:45:06;98062.50;;;1.35;95.27
69411;BME280;56604;48.652;9.194;2023-02-13T02:47:41;98069.59;;;1.33;95.20
69411;BME280;56604;48.652;9.194;2023-02-13T02:50:40;98075.06;;;1.30;94.56
69411;BME280;56604;48.652;9.194;2023-02-13T02:53:27;98067.19;;;1.22;94.67
69411;BME280;56604;48.652;9.194;2023-02-13T02:58:36;98069.56;;;1.16;94.36
69411;BME280;56604;48.652;9.194;2023-02-13T03:01:24;98070.25;;;1.08;94.03
69411;BME280;56604;48.652;9.194;2023-02-13T03:04:17;98066.63;;;1.01;94.76
69411;BME280;56604;48.652;9.194;2023-02-13T03:07:06;98061.63;;;0.89;94.69
69411;BME280;56604;48.652;9.194;2023-02-13T03:09:36;98074.47;;;0.81;95.30
69411;BME280;56604;48.652;9.194;2023-02-13T03:12:23;98074.50;;;0.72;95.37
69411;BME280;56604;48.652;9.194;2023-02-13T03:15:09;98076.69;;;0.57;95.83
69411;BME280;56604;48.652;9.194;2023-02-13T03:17:34;98078.91;;;0.52;95.69
69411;BME280;56604;48.652;9.194;2023-02-13T03:20:34;98078.78;;;0.43;95.64
69411;BME280;56604;48.652;9.194;2023-02-13T03:23:48;98078.66;;;0.35;95.58
69411;BME280;56604;48.652;9.194;2023-02-13T03:31:55;98092.56;;;0.25;96.36
69411;BME280;56604;48.652;9.194;2023-02-13T03:34:29;98093.94;;;0.19;96.18
69411;BME280;56604;48.652;9.194;2023-02-13T03:37:17;98090.41;;;0.20;96.29
69411;BME280;56604;48.652;9.194;2023-02-13T03:40:10;98095.81;;;0.17;96.47
69411;BME280;56604;48.652;9.194;2023-02-13T03:42:41;98098.16;;;0.20;96.67
69411;BME280;56604;48.652;9.194;2023-02-13T03:45:14;98094.47;;;0.22;97.12
69411;BME280;56604;48.652;9.194;2023-02-13T03:48:01;98102.09;;;0.24;97.10
69411;BME280;56604;48.652;9.194;2023-02-13T03:50:37;98096.91;;;0.24;97.19
69411;BME280;56604;48.652;9.194;2023-02-13T03:53:09;98096.91;;;0.24;96.96
69411;BME280;56604;48.652;9.194;2023-02-13T03:55:39;98100.47;;;0.23;97.52
69411;BME280;56604;48.652;9.194;2023-02-13T03:58:31;98101.81;;;0.27;97.26
69411;BME280;56604;48.652;9.194;2023-02-13T04:01:20;98104.97;;;0.21;97.40
69411;BME280;56604;48.652;9.194;2023-02-13T04:03:56;98105.66;;;0.23;97.37
69411;BME280;56604;48.652;9.194;2023-02-13T04:06:31;98108.22;;;0.23;97.56
69411;BME280;56604;48.652;9.194;2023-02-13T04:08:58;98106.03;;;0.28;97.62
69411;BME280;56604;48.652;9.194;2023-02-13T04:11:29;98106.44;;;0.33;98.09
69411;BME280;56604;48.652;9.194;2023-02-13T04:14:04;98110.00;;;0.32;97.87
69411;BME280;56604;48.652;9.194;2023-02-13T04:16:40;98108.09;;;0.34;98.17
69411;BME280;56604;48.652;9.194;2023-02-13T04:19:07;98108.75;;;0.36;97.98
69411;BME280;56604;48.652;9.194;2023-02-13T04:21:35;98104.50;;;0.55;98.26
69411;BME280;56604;48.652;9.194;2023-02-13T04:24:01;98107.59;;;0.68;98.65
69411;BME280;56604;48.652;9.194;2023-02-13T04:26:36;98105.53;;;0.81;98.91
69411;BME280;56604;48.652;9.194;2023-02-13T04:29:02;98112.06;;;0.85;98.63
69411;BME280;56604;48.652;9.194;2023-02-13T04:31:28;98106.31;;;0.92;98.65
69411;BME280;56604;48.652;9.194;2023-02-13T04:33:53;98106.31;;;0.92;98.39
69411;BME280;56604;48.652;9.194;2023-02-13T04:36:18;98107.25;;;0.90;98.51
69411;BME280;56604;48.652;9.194;2023-02-13T04:38:43;98107.25;;;0.90;97.77
69411;BME280;56604;48.652;9.194;2023-02-13T04:41:10;98106.91;;;0.85;97.48
69411;BME280;56604;48.652;9.194;2023-02-13T04:43:35;98110.72;;;0.81;98.03
69411;BME280;56604;48.652;9.194;2023-02-13T04:46:01;98112.91;;;0.76;97.52
69411;BME280;56604;48.652;9.194;2023-02-13T04:48:26;98111.13;;;0.77;97.46
69411;BME280;56604;48.652;9.194;2023-02-13T04:50:52;98102.81;;;0.83;97.42
69411;BME280;56604;48.652;9.194;2023-02-13T04:53:17;98109.63;;;0.84;98.01
69411;BME280;56604;48.652;9.194;2023-02-13T04:55:42;98108.41;;;0.78;97.76
69411;BME280;56604;48.652;9.194;2023-02-13T04:58:07;98111.28;;;0.75;97.53
69411;BME280;56604;48.652;9.194;2023-02-13T05:00:33;98108.97;;;0.72;97.44
69411;BME280;56604;48.652;9.194;2023-02-13T05:03:06;98117.00;;;0.69;96.78
69411;BME280;56604;48.652;9.194;2023-02-13T05:05:32;98114.81;;;0.74;97.16
69411;BME280;56604;48.652;9.194;2023-02-13T05:07:58;98105.28;;;0.65;97.28
69411;BME280;56604;48.652;9.194;2023-02-13T05:10:23;98115.63;;;0.65;97.06
69411;BME280;56604;48.652;9.194;2023-02-13T05:12:48;98115.00;;;0.63;96.69
69411;BME280;56604;48.652;9.194;2023-02-13T05:15:14;98109.69;;;0.55;96.81
69411;BME280;56604;48.652;9.194;2023-02-13T05:17:42;98113.22;;;0.54;96.50
69411;BME280;56604;48.652;9.194;2023-02-13T05:20:11;98118.66;;;0.51;96.79
69411;BME280;56604;48.652;9.194;2023-02-13T05:22:36;98116.78;;;0.43;96.80
69411;BME280;56604;48.652;9.194;2023-02-13T05:25:20;98110.41;;;0.37;96.81
69411;BME280;56604;48.652;9.194;2023-02-13T05:27:46;98128.78;;;0.34;96.67
69411;BME280;56604;48.652;9.194;2023-02-13T05:30:12;98122.75;;;0.34;96.85
69411;BME280;56604;48.652;9.194;2023-02-13T05:32:38;98123.31;;;0.37;96.90
69411;BME280;56604;48.652;9.194;2023-02-13T05:35:04;98117.06;;;0.40;96.99
69411;BME280;56604;48.652;9.194;2023-02-13T05:37:29;98125.50;;;0.52;96.60
69411;BME280;56604;48.652;9.194;2023-02-13T05:39:54;98124.66;;;0.51;97.25
69411;BME280;56604;48.652;9.194;2023-02-13T05:42:20;98118.09;;;0.57;97.18
69411;BME280;56604;48.652;9.194;2023-02-13T05:44:45;98113.34;;;0.62;97.10
69411;BME280;56604;48.652;9.194;2023-02-13T05:47:10;98116.72;;;0.62;96.91
69411;BME280;56604;48.652;9.194;2023-02-13T05:49:36;98114.59;;;0.58;97.17
69411;BME280;56604;48.652;9.194;2023-02-13T05:52:01;98125.75;;;0.58;97.08
69411;BME280;56604;48.652;9.194;2023-02-13T05:54:27;98119.59;;;0.59;97.17
69411;BME280;56604;48.652;9.194;2023-02-13T05:56:52;98120.03;;;0.55;97.17
69411;BME280;56604;48.652;9.194;2023-02-13T05:59:17;98121.25;;;0.51;97.54
69411;BME280;56604;48.652;9.194;2023-02-13T06:01:42;98115.13;;;0.52;97.52
69411;BME280;56604;48.652;9.194;2023-02-13T06:04:08;98127.13;;;0.53;97.38
69411;BME280;56604;48.652;9.194;2023-02-13T06:06:33;98124.13;;;0.57;97.31
69411;BME280;56604;48.652;9.194;2023-02-13T06:08:58;98120.56;;;0.58;97.45
69411;BME280;56604;48.652;9.194;2023-02-13T06:11:24;98116.34;;;0.57;98.11
69411;BME280;56604;48.652;9.194;2023-02-13T06:13:49;98119.47;;;0.51;97.68
69411;BME280;56604;48.652;9.194;2023-02-13T06:16:14;98124.81;;;0.50;97.46
69411;BME280;56604;48.652;9.194;2023-02-13T06:18:40;98119.06;;;0.56;97.72
69411;BME280;56604;48.652;9.194;2023-02-13T06:21:06;98120.31;;;0.52;97.87
69411;BME280;56604;48.652;9.194;2023-02-13T06:23:32;98124.28;;;0.46;97.92
69411;BME280;56604;48.652;9.194;2023-02-13T06:26:02;98118.66;;;0.51;97.48
69411;BME280;56604;48.652;9.194;2023-02-13T06:28:28;98121.28;;;0.41;97.91
69411;BME280;56604;48.652;9.194;2023-02-13T06:30:53;98120.59;;;0.29;97.10
69411;BME280;56604;48.652;9.194;2023-02-13T06:33:18;98126.34;;;0.23;97.09
69411;BME280;56604;48.652;9.194;2023-02-13T06:35:43;98124.41;;;0.25;97.14
69411;BME280;56604;48.652;9.194;2023-02-13T06:38:09;98129.44;;;0.27;97.07
69411;BME280;56604;48.652;9.194;2023-02-13T06:40:34;98129.56;;;0.25;96.53
69411;BME280;56604;48.652;9.194;2023-02-13T06:42:59;98129.56;;;0.25;96.84
69411;BME280;56604;48.652;9.194;2023-02-13T06:45:25;98123.84;;;0.31;96.85
69411;BME280;56604;48.652;9.194;2023-02-13T06:47:50;98131.47;;;0.42;97.05
69411;BME280;56604;48.652;9.194;2023-02-13T06:50:16;98131.31;;;0.54;97.37
69411;BME280;56604;48.652;9.194;2023-02-13T06:52:50;98128.69;;;0.73;97.49
69411;BME280;56604;48.652;9.194;2023-02-13T06:55:16;98121.00;;;1.01;97.08
69411;BME280;56604;48.652;9.194;2023-02-13T06:57:43;98126.69;;;1.14;96.45
69411;BME280;56604;48.652;9.194;2023-02-13T07:00:09;98135.03;;;1.35;96.37
69411;BME280;56604;48.652;9.194;2023-02-13T07:02:38;98127.59;;;1.50;95.33
69411;BME280;56604;48.652;9.194;2023-02-13T07:05:04;98126.09;;;1.75;94.83
69411;BME280;56604;48.652;9.194;2023-02-13T07:07:33;98125.69;;;1.98;93.66
69411;BME280;56604;48.652;9.194;2023-02-13T07:09:59;98122.34;;;2.23;91.83
69411;BME280;56604;48.652;9.194;2023-02-13T07:12:25;98123.13;;;2.42;91.30
69411;BME280;56604;48.652;9.194;2023-02-13T07:14:50;98125.00;;;2.76;89.85
69411;BME280;56604;48.652;9.194;2023-02-13T07:17:16;98132.53;;;3.13;88.78
69411;BME280;56604;48.652;9.194;2023-02-13T07:19:42;98126.59;;;3.29;86.41
69411;BME280;56604;48.652;9.194;2023-02-13T07:22:07;98116.47;;;3.52;84.80
69411;BME280;56604;48.652;9.194;2023-02-13T07:24:32;98129.72;;;3.83;82.77
69411;BME280;56604;48.652;9.194;2023-02-13T07:26:59;98122.75;;;4.00;81.55
69411;BME280;56604;48.652;9.194;2023-02-13T07:29:25;98126.88;;;4.27;80.54
69411;BME280;56604;48.652;9.194;2023-02-13T07:31:50;98125.25;;;4.59;79.83
69411;BME280;56604;48.652;9.194;2023-02-13T07:34:16;98128.00;;;4.57;77.20
69411;BME280;56604;48.652;9.194;2023-02-13T07:36:41;98123.44;;;4.76;77.31
69411;BME280;56604;48.652;9.194;2023-02-13T07:39:06;98123.84;;;5.04;76.26
69411;BME280;56604;48.652;9.194;2023-02-13T07:41:32;98132.25;;;5.30;74.39
69411;BME280;56604;48.652;9.194;2023-02-13T07:43:57;98135.81;;;5.37;73.84
69411;BME280;56604;48.652;9.194;2023-02-13T07:46:22;98131.31;;;5.15;74.93
69411;BME280;56604;48.652;9.194;2023-02-13T07:48:50;98135.75;;;5.54;73.16
69411;BME280;56604;48.652;9.194;2023-02-13T07:51:16;98131.03;;;5.80;72.35
69411;BME280;56604;48.652;9.194;2023-02-13T07:53:41;98139.19;;;5.85;71.96
69411;BME280;56604;48.652;9.194;2023-02-13T07:56:07;98127.63;;;6.34;70.41
69411;BME280;56604;48.652;9.194;2023-02-13T07:58:34;98132.88;;;6.34;69.91
69411;BME280;56604;48.652;9.194;2023-02-13T08:01:08;98130.34;;;5.95;69.24
69411;BME280;56604;48.652;9.194;2023-02-13T08:03:34;98136.00;;;5.75;71.51
69411;BME280;56604;48.652;9.194;2023-02-13T08:06:01;98141.72;;;6.86;68.53
69411;BME280;56604;48.652;9.194;2023-02-13T08:08:26;98137.44;;;7.22;67.36
69411;BME280;56604;48.652;9.194;2023-02-13T08:10:52;98139.25;;;7.37;65.85
69411;BME280;56604;48.652;9.194;2023-02-13T08:13:36;98134.81;;;8.03;63.54
69411;BME280;56604;48.652;9.194;2023-02-13T08:16:02;98137.63;;;8.02;62.90
69411;BME280;56604;48.652;9.194;2023-02-13T08:18:27;98135.94;;;7.94;63.55
69411;BME280;56604;48.652;9.194;2023-02-13T08:20:52;98134.88;;;7.74;62.96
69411;BME280;56604;48.652;9.194;2023-02-13T08:23:18;98134.75;;;8.18;63.18
69411;BME280;56604;48.652;9.194;2023-02-13T08:25:43;98129.88;;;8.51;62.00
69411;BME280;56604;48.652;9.194;2023-02-13T08:28:09;98138.28;;;7.89;62.74
69411;BME280;56604;48.652;9.194;2023-02-13T08:30:34;98128.22;;;8.72;60.33
69411;BME280;56604;48.652;9.194;2023-02-13T08:33:00;98130.78;;;8.93;59.34
69411;BME280;56604;48.652;9.194;2023-02-13T08:35:25;98138.41;;;7.81;62.82
69411;BME280;56604;48.652;9.194;2023-02-13T08:37:53;98145.84;;;7.03;64.25
69411;BME280;56604;48.652;9.194;2023-02-13T08:40:19;98133.47;;;8.29;62.23
69411;BME280;56604;48.652;9.194;2023-02-13T08:42:48;98133.59;;;8.42;60.31
69411;BME280;56604;48.652;9.194;2023-02-13T08:45:14;98132.91;;;7.76;61.33
69411;BME280;56604;48.652;9.194;2023-02-13T08:47:39;98130.72;;;7.79;62.63
69411;BME280;56604;48.652;9.194;2023-02-13T08:50:05;98131.28;;;7.75;63.56
69411;BME280;56604;48.652;9.194;2023-02-13T08:52:31;98125.19;;;8.25;61.23
69411;BME280;56604;48.652;9.194;2023-02-13T08:54:56;98139.34;;;7.14;64.99
69411;BME280;56604;48.652;9.194;2023-02-13T08:57:21;98129.59;;;7.22;64.51
69411;BME280;56604;48.652;9.194;2023-02-13T08:59:47;98132.84;;;6.95;65.94
69411;BME280;56604;48.652;9.194;2023-02-13T09:02:12;98142.34;;;6.73;65.60
69411;BME280;56604;48.652;9.194;2023-02-13T09:04:39;98133.50;;;7.27;66.22
69411;BME280;56604;48.652;9.194;2023-02-13T09:07:05;98130.59;;;7.21;65.34
69411;BME280;56604;48.652;9.194;2023-02-13T09:09:30;98132.31;;;6.62;68.29
69411;BME280;56604;48.652;9.194;2023-02-13T09:11:56;98128.63;;;7.09;65.00
69411;BME280;56604;48.652;9.194;2023-02-13T09:14:23;98132.28;;;6.85;64.90
69411;BME280;56604;48.652;9.194;2023-02-13T09:16:48;98130.03;;;6.82;66.79
69411;BME280;56604;48.652;9.194;2023-02-13T09:19:14;98131.13;;;6.49;66.87
69411;BME280;56604;48.652;9.194;2023-02-13T09:21:40;98128.06;;;7.13;65.61
69411;BME280;56604;48.652;9.194;2023-02-13T09:24:07;98129.66;;;7.74;63.03
69411;BME280;56604;48.652;9.194;2023-02-13T09:26:33;98124.56;;;7.87;62.98
69411;BME280;56604;48.652;9.194;2023-02-13T09:28:58;98135.09;;;7.28;63.46
69411;BME280;56604;48.652;9.194;2023-02-13T09:31:23;98130.19;;;7.84;62.41
69411;BME280;56604;48.652;9.194;2023-02-13T09:33:49;98127.03;;;8.10;60.67
69411;BME280;56604;48.652;9.194;2023-02-13T09:36:17;98129.09;;;8.36;60.32
69411;BME280;56604;48.652;9.194;2023-02-13T09:38:45;98131.88;;;7.77;62.60
69411;BME280;56604;48.652;9.194;2023-02-13T09:41:23;98130.38;;;8.40;59.56
69411;BME280;56604;48.652;9.194;2023-02-13T09:44:09;98133.47;;;8.29;60.59
69411;BME280;56604;48.652;9.194;2023-02-13T09:46:38;98124.69;;;8.86;59.73
69411;BME280;56604;48.652;9.194;2023-02-13T09:49:12;98145.47;;;7.51;62.33
69411;BME280;56604;48.652;9.194;2023-02-13T09:51:40;98142.84;;;7.65;61.48
69411;BME280;56604;48.652;9.194;2023-02-13T09:54:07;98139.06;;;8.04;61.79
69411;BME280;56604;48.652;9.194;2023-02-13T10:02:45;98147.16;;;9.65;57.75
69411;BME280;56604;48.652;9.194;2023-02-13T10:05:34;98143.75;;;8.45;57.87
69411;BME280;56604;48.652;9.194;2023-02-13T10:08:26;98135.94;;;9.43;56.62
69411;BME280;56604;48.652;9.194;2023-02-13T10:13:42;98145.03;;;8.56;58.69
69411;BME280;56604;48.652;9.194;2023-02-13T10:16:18;98147.53;;;8.28;59.70
69411;BME280;56604;48.652;9.194;2023-02-13T10:18:52;98144.22;;;8.34;59.88
69411;BME280;56604;48.652;9.194;2023-02-13T10:21:20;98151.19;;;8.27;59.59
69411;BME280;56604;48.652;9.194;2023-02-13T10:26:24;98152.72;;;7.85;61.08
69411;BME280;56604;48.652;9.194;2023-02-13T10:29:11;98146.75;;;8.27;58.78
69411;BME280;56604;48.652;9.194;2023-02-13T10:31:59;98147.72;;;8.63;58.51
69411;BME280;56604;48.652;9.194;2023-02-13T10:34:31;98149.69;;;8.39;59.35
69411;BME280;56604;48.652;9.194;2023-02-13T10:36:59;98146.19;;;8.75;57.56
69411;BME280;56604;48.652;9.194;2023-02-13T10:39:27;98143.00;;;8.37;57.41
69411;BME280;56604;48.652;9.194;2023-02-13T10:42:15;98144.13;;;7.91;59.38
69411;BME280;56604;48.652;9.194;2023-02-13T10:58:34;98128.72;;;9.52;56.42
69411;BME280;56604;48.652;9.194;2023-02-13T11:03:40;98115.66;;;8.67;56.60
69411;BME280;56604;48.652;9.194;2023-02-13T11:06:12;98116.88;;;8.93;55.73
69411;BME280;56604;48.652;9.194;2023-02-13T11:08:41;98105.72;;;9.54;54.50
69411;BME280;56604;48.652;9.194;2023-02-13T11:14:18;98118.81;;;8.84;56.42
69411;BME280;56604;48.652;9.194;2023-02-13T11:19:21;98109.69;;;9.43;55.79
69411;BME280;56604;48.652;9.194;2023-02-13T11:21:53;98095.72;;;9.90;54.22
69411;BME280;56604;48.652;9.194;2023-02-13T11:24:23;98107.25;;;9.41;55.39
69411;BME280;56604;48.652;9.194;2023-02-13T11:26:56;98107.34;;;8.85;57.16
69411;BME280;56604;48.652;9.194;2023-02-13T11:29:29;98110.22;;;8.41;58.57
69411;BME280;56604;48.652;9.194;2023-02-13T11:32:02;98099.28;;;8.87;58.49
69411;BME280;56604;48.652;9.194;2023-02-13T11:34:29;98104.66;;;8.50;58.51
69411;BME280;56604;48.652;9.194;2023-02-13T11:37:16;98106.22;;;8.23;59.76
69411;BME280;56604;48.652;9.194;2023-02-13T11:39:44;98108.13;;;8.36;58.77
69411;BME280;56604;48.652;9.194;2023-02-13T11:42:15;98101.91;;;8.37;58.92
69411;BME280;56604;48.652;9.194;2023-02-13T11:44:43;98104.44;;;8.45;60.11
69411;BME280;56604;48.652;9.194;2023-02-13T11:47:12;98099.38;;;8.07;60.22
69411;BME280;56604;48.652;9.194;2023-02-13T11:49:44;98099.75;;;8.04;62.33
69411;BME280;56604;48.652;9.194;2023-02-13T11:52:31;98102.38;;;7.83;62.96
69411;BME280;56604;48.652;9.194;2023-02-13T11:55:04;98104.69;;;7.41;63.72
69411;BME280;56604;48.652;9.194;2023-02-13T11:57:35;98107.84;;;7.37;63.32
69411;BME280;56604;48.652;9.194;2023-02-13T12:00:38;98103.56;;;7.14;64.78
69411;BME280;56604;48.652;9.194;2023-02-13T12:06:12;98104.69;;;6.97;65.99
69411;BME280;56604;48.652;9.194;2023-02-13T12:08:40;98102.13;;;6.59;66.89
69411;BME280;56604;48.652;9.194;2023-02-13T12:11:20;98107.31;;;6.97;68.34
69411;BME280;56604;48.652;9.194;2023-02-13T12:13:47;98103.13;;;6.58;68.24
69411;BME280;56604;48.652;9.194;2023-02-13T12:16:24;98103.00;;;6.51;68.20
69411;BME280;56604;48.652;9.194;2023-02-13T12:18:53;98102.06;;;6.67;68.43
69411;BME280;56604;48.652;9.194;2023-02-13T12:21:58;98097.19;;;6.64;68.34
69411;BME280;56604;48.652;9.194;2023-02-13T12:35:34;98095.09;;;6.60;68.15
69411;BME280;56604;48.652;9.194;2023-02-13T12:41:16;98087.47;;;6.73;67.61
69411;BME280;56604;48.652;9.194;2023-02-13T12:46:39;98093.16;;;6.76;67.41
69411;BME280;56604;48.652;9.194;2023-02-13T12:58:04;98085.59;;;6.82;67.60
69411;BME280;56604;48.652;9.194;2023-02-13T13:00:57;98082.09;;;6.74;67.95
69411;BME280;56604;48.652;9.194;2023-02-13T13:03:42;98081.81;;;6.84;67.72
69411;BME280;56604;48.652;9.194;2023-02-13T13:06:32;98081.59;;;6.86;69.43
69411;BME280;56604;48.652;9.194;2023-02-13T13:11:52;98076.06;;;6.89;67.57
69411;BME280;56604;48.652;9.194;2023-02-13T13:17:27;98065.03;;;6.93;68.24
69411;BME280;56604;48.652;9.194;2023-02-13T13:20:02;98070.53;;;6.84;67.92
69411;BME280;56604;48.652;9.194;2023-02-13T13:25:46;98065.41;;;6.90;67.90
69411;BME280;56604;48.652;9.194;2023-02-13T13:28:18;98060.63;;;6.94;68.68
69411;BME280;56604;48.652;9.194;2023-02-13T13:30:46;98065.13;;;7.00;67.09
69411;BME280;56604;48.652;9.194;2023-02-13T13:33:16;98057.84;;;6.95;67.39
69411;BME280;56604;48.652;9.194;2023-02-13T13:36:04;98053.31;;;7.04;68.48
69411;BME280;56604;48.652;9.194;2023-02-13T13:38:56;98053.66;;;7.16;68.07
69411;BME280;56604;48.652;9.194;2023-02-13T13:41:46;98057.19;;;7.23;68.20
69411;BME280;56604;48.652;9.194;2023-02-13T13:44:35;98060.28;;;7.12;68.34
69411;BME280;56604;48.652;9.194;2023-02-13T13:50:25;98053.75;;;7.22;68.80
69411;BME280;56604;48.652;9.194;2023-02-13T13:53:12;98053.31;;;7.04;68.26
69411;BME280;56604;48.652;9.194;2023-02-13T13:58:22;98049.09;;;7.03;68.05
69411;BME280;56604;48.652;9.194;2023-02-13T14:03:52;98054.81;;;7.28;67.31
69411;BME280;56604;48.652;9.194;2023-02-13T14:06:24;98052.50;;;7.18;67.93
69411;BME280;56604;48.652;9.194;2023-02-13T14:08:59;98057.28;;;7.30;68.38
69411;BME280;56604;48.652;9.194;2023-02-13T14:11:35;98057.91;;;7.32;67.60
69411;BME280;56604;48.652;9.194;2023-02-13T14:14:01;98053.84;;;7.29;68.11
69411;BME280;56604;48.652;9.194;2023-02-13T14:16:43;98050.44;;;7.29;67.83
69411;BME280;56604;48.652;9.194;2023-02-13T14:19:28;98052.84;;;7.30;68.30
69411;BME280;56604;48.652;9.194;2023-02-13T14:25:05;98056.47;;;7.14;68.26
69411;BME280;56604;48.652;9.194;2023-02-13T14:27:35;98053.03;;;7.29;68.01
69411;BME280;56604;48.652;9.194;2023-02-13T14:30:04;98057.72;;;7.18;69.05
69411;BME280;56604;48.652;9.194;2023-02-13T14:32:32;98050.75;;;7.26;69.12
69411;BME280;56604;48.652;9.194;2023-02-13T14:35:00;98058.47;;;7.12;68.98
69411;BME280;56604;48.652;9.194;2023-02-13T14:37:30;98048.63;;;7.29;69.53
69411;BME280;56604;48.652;9.194;2023-02-13T14:40:41;98057.16;;;7.38;68.80
69411;BME280;56604;48.652;9.194;2023-02-13T14:43:27;98051.75;;;7.25;69.83
69411;BME280;56604;48.652;9.194;2023-02-13T14:49:33;98051.31;;;7.21;69.48
69411;BME280;56604;48.652;9.194;2023-02-13T14:51:54;98058.16;;;7.22;69.54
69411;BME280;56604;48.652;9.194;2023-02-13T14:54:28;98056.81;;;7.11;70.52
69411;BME280;56604;48.652;9.194;2023-02-13T14:57:05;98045.56;;;7.11;70.64
69411;BME280;56604;48.652;9.194;2023-02-13T14:59:35;98049.09;;;7.03;70.64
69411;BME280;56604;48.652;9.194;2023-02-13T15:02:20;98049.69;;;7.05;69.82
69411;BME280;56604;48.652;9.194;2023-02-13T15:04:58;98047.09;;;7.05;70.07
69411;BME280;56604;48.652;9.194;2023-02-13T15:07:28;98054.22;;;6.96;70.25
69411;BME280;56604;48.652;9.194;2023-02-13T15:09:59;98056.84;;;6.82;71.08
69411;BME280;56604;48.652;9.194;2023-02-13T15:12:34;98049.28;;;6.87;70.70
69411;BME280;56604;48.652;9.194;2023-02-13T15:15:00;98053.22;;;6.83;70.89
69411;BME280;56604;48.652;9.194;2023-02-13T15:17:29;98051.25;;;6.85;70.85
69411;BME280;56604;48.652;9.194;2023-02-13T15:20:07;98043.41;;;6.70;71.43